sensor_id;sensor_type;location;lat;lon;timestamp;temperature;humidity
46898;DHT22;32646;50.958;6.258;2022-10-26T10:29:51;21.60;98.60
46898;DHT22;32646;50.958;6.258;2022-10-26T10:32:19;21.80;99.30
46898;DHT22;32646;50.958;6.258;2022-10-26T10:34:46;22.10;98.70
46898;DHT22;32646;50.958;6.258;2022-10-26T10:39:45;22.30;98.30
46898;DHT22;32646;50.958;6.258;2022-10-26T10:42:16;22.40;98.40
46898;DHT22;32646;50.958;6.258;2022-10-26T10:44:43;22.60;97.50
46898;DHT22;32646;50.958;6.258;2022-10-26T10:47:15;22.50;98.20
46898;DHT22;32646;50.958;6.258;2022-10-26T10:49:48;22.70;97.50
46898;DHT22;32646;50.958;6.258;2022-10-26T10:52:23;22.80;97.70
46898;DHT22;32646;50.958;6.258;2022-10-26T10:54:50;22.50;97.00
46898;DHT22;32646;50.958;6.258;2022-10-26T10:57:22;22.50;98.60
46898;DHT22;32646;50.958;6.258;2022-10-26T10:59:53;22.30;98.60
46898;DHT22;32646;50.958;6.258;2022-10-26T11:05:10;22.70;96.60
46898;DHT22;32646;50.958;6.258;2022-10-26T11:08:04;22.60;97.10
46898;DHT22;32646;50.958;6.258;2022-10-26T11:10:30;22.80;97.00
46898;DHT22;32646;50.958;6.258;2022-10-26T11:12:58;22.80;97.10
46898;DHT22;32646;50.958;6.258;2022-10-26T11:15:27;23.10;98.40
46898;DHT22;32646;50.958;6.258;2022-10-26T11:20:31;23.20;96.10
46898;DHT22;32646;50.958;6.258;2022-10-26T11:23:03;22.90;96.20
46898;DHT22;32646;50.958;6.258;2022-10-26T11:25:39;23.10;96.10
46898;DHT22;32646;50.958;6.258;2022-10-26T11:28:11;23.40;95.90
46898;DHT22;32646;50.958;6.258;2022-10-26T11:30:44;23.30;96.10
46898;DHT22;32646;50.958;6.258;2022-10-26T11:33:14;23.30;96.00
46898;DHT22;32646;50.958;6.258;2022-10-26T11:38:16;22.90;96.50
46898;DHT22;32646;50.958;6.258;2022-10-26T11:41:13;23.10;96.10
46898;DHT22;32646;50.958;6.258;2022-10-26T11:43:44;23.00;96.00
46898;DHT22;32646;50.958;6.258;2022-10-26T11:46:17;22.80;96.50
46898;DHT22;32646;50.958;6.258;2022-10-26T11:51:19;22.70;96.80
46898;DHT22;32646;50.958;6.258;2022-10-26T11:53:47;22.70;97.80
46898;DHT22;32646;50.958;6.258;2022-10-26T11:56:48;22.90;96.90
46898;DHT22;32646;50.958;6.258;2022-10-26T11:59:09;23.10;97.20
46898;DHT22;32646;50.958;6.258;2022-10-26T12:01:40;23.50;96.90
46898;DHT22;32646;50.958;6.258;2022-10-26T12:04:07;23.50;95.50
46898;DHT22;32646;50.958;6.258;2022-10-26T12:06:34;23.20;95.90
46898;DHT22;32646;50.958;6.258;2022-10-26T12:09:07;23.20;96.50
46898;DHT22;32646;50.958;6.258;2022-10-26T12:11:40;23.10;96.20
46898;DHT22;32646;50.958;6.258;2022-10-26T12:19:35;23.70;95.50
46898;DHT22;32646;50.958;6.258;2022-10-26T12:22:06;23.40;95.30
46898;DHT22;32646;50.958;6.258;2022-10-26T12:24:34;23.30;95.40
46898;DHT22;32646;50.958;6.258;2022-10-26T12:27:02;23.20;95.20
46898;DHT22;32646;50.958;6.258;2022-10-26T12:32:48;23.00;95.30
46898;DHT22;32646;50.958;6.258;2022-10-26T12:37:22;23.30;95.70
46898;DHT22;32646;50.958;6.258;2022-10-26T12:39:49;23.10;95.60
46898;DHT22;32646;50.958;6.258;2022-10-26T12:47:08;22.70;95.30
46898;DHT22;32646;50.958;6.258;2022-10-26T12:52:41;22.50;95.20
46898;DHT22;32646;50.958;6.258;2022-10-26T12:57:46;22.90;95.20
46898;DHT22;32646;50.958;6.258;2022-10-26T13:00:22;22.90;95.30
46898;DHT22;32646;50.958;6.258;2022-10-26T13:02:53;23.10;94.80
46898;DHT22;32646;50.958;6.258;2022-10-26T13:08:06;23.80;93.80
46898;DHT22;32646;50.958;6.258;2022-10-26T13:10:33;24.30;94.10
46898;DHT22;32646;50.958;6.258;2022-10-26T13:13:01;24.40;94.00
46898;DHT22;32646;50.958;6.258;2022-10-26T13:15:38;24.20;93.10
46898;DHT22;32646;50.958;6.258;2022-10-26T13:20:35;24.30;92.10
46898;DHT22;32646;50.958;6.258;2022-10-26T13:23:02;24.10;93.10
46898;DHT22;32646;50.958;6.258;2022-10-26T13:25:39;24.00;93.10
46898;DHT22;32646;50.958;6.258;2022-10-26T13:28:08;24.30;92.90
46898;DHT22;32646;50.958;6.258;2022-10-26T13:30:52;24.20;92.90
46898;DHT22;32646;50.958;6.258;2022-10-26T13:33:19;24.20;92.80
46898;DHT22;32646;50.958;6.258;2022-10-26T13:35:48;23.80;93.30
46898;DHT22;32646;50.958;6.258;2022-10-26T13:38:17;24.00;93.00
46898;DHT22;32646;50.958;6.258;2022-10-26T13:40:44;23.90;92.80
46898;DHT22;32646;50.958;6.258;2022-10-26T13:43:15;23.90;92.10
46898;DHT22;32646;50.958;6.258;2022-10-26T13:45:46;24.00;91.90
46898;DHT22;32646;50.958;6.258;2022-10-26T13:48:17;23.80;92.20
46898;DHT22;32646;50.958;6.258;2022-10-26T13:50:46;23.60;92.40
46898;DHT22;32646;50.958;6.258;2022-10-26T13:53:36;23.70;92.50
46898;DHT22;32646;50.958;6.258;2022-10-26T13:58:40;23.40;92.60
46898;DHT22;32646;50.958;6.258;2022-10-26T14:01:17;23.10;92.80
46898;DHT22;32646;50.958;6.258;2022-10-26T14:03:44;23.00;93.10
46898;DHT22;32646;50.958;6.258;2022-10-26T14:06:14;22.90;93.50
46898;DHT22;32646;50.958;6.258;2022-10-26T14:08:41;23.00;93.70
46898;DHT22;32646;50.958;6.258;2022-10-26T14:11:11;23.10;92.90
46898;DHT22;32646;50.958;6.258;2022-10-26T14:13:38;23.10;92.80
46898;DHT22;32646;50.958;6.258;2022-10-26T14:16:08;23.20;92.80
46898;DHT22;32646;50.958;6.258;2022-10-26T14:18:37;23.20;93.10
46898;DHT22;32646;50.958;6.258;2022-10-26T14:21:04;23.10;93.00
46898;DHT22;32646;50.958;6.258;2022-10-26T14:26:26;22.90;93.10
46898;DHT22;32646;50.958;6.258;2022-10-26T14:28:57;22.90;93.10
46898;DHT22;32646;50.958;6.258;2022-10-26T14:34:32;22.70;93.60
46898;DHT22;32646;50.958;6.258;2022-10-26T14:37:00;22.50;94.00
46898;DHT22;32646;50.958;6.258;2022-10-26T14:39:41;22.20;94.40
46898;DHT22;32646;50.958;6.258;2022-10-26T14:42:17;22.20;94.40
46898;DHT22;32646;50.958;6.258;2022-10-26T14:44:47;22.20;94.60
46898;DHT22;32646;50.958;6.258;2022-10-26T14:47:16;22.10;94.80
46898;DHT22;32646;50.958;6.258;2022-10-26T14:49:46;21.80;95.10
46898;DHT22;32646;50.958;6.258;2022-10-26T14:52:15;21.70;95.00
46898;DHT22;32646;50.958;6.258;2022-10-26T14:54:43;21.60;95.60
46898;DHT22;32646;50.958;6.258;2022-10-26T14:57:28;21.70;95.30
46898;DHT22;32646;50.958;6.258;2022-10-26T14:59:59;21.50;95.50
46898;DHT22;32646;50.958;6.258;2022-10-26T15:02:26;21.50;95.20
46898;DHT22;32646;50.958;6.258;2022-10-26T15:04:57;21.50;95.60
46898;DHT22;32646;50.958;6.258;2022-10-26T15:07:32;21.40;95.80
46898;DHT22;32646;50.958;6.258;2022-10-26T15:09:59;21.30;96.10
46898;DHT22;32646;50.958;6.258;2022-10-26T15:12:30;21.10;96.20
46898;DHT22;32646;50.958;6.258;2022-10-26T15:17:35;20.80;96.80
46898;DHT22;32646;50.958;6.258;2022-10-26T15:20:03;20.70;96.60
46898;DHT22;32646;50.958;6.258;2022-10-26T15:22:30;20.50;97.10
46898;DHT22;32646;50.958;6.258;2022-10-26T15:24:59;20.50;97.20
46898;DHT22;32646;50.958;6.258;2022-10-26T15:27:26;20.50;97.30
46898;DHT22;32646;50.958;6.258;2022-10-26T15:30:38;20.40;97.60
46898;DHT22;32646;50.958;6.258;2022-10-26T15:32:39;20.30;97.80
46898;DHT22;32646;50.958;6.258;2022-10-26T15:35:11;20.20;98.00
46898;DHT22;32646;50.958;6.258;2022-10-26T15:37:38;20.20;98.10
46898;DHT22;32646;50.958;6.258;2022-10-26T15:40:05;20.10;98.30
46898;DHT22;32646;50.958;6.258;2022-10-26T15:42:31;20.00;98.50
46898;DHT22;32646;50.958;6.258;2022-10-26T15:45:00;19.90;98.80
46898;DHT22;32646;50.958;6.258;2022-10-26T15:47:27;19.80;98.80
46898;DHT22;32646;50.958;6.258;2022-10-26T15:49:54;19.80;98.90
46898;DHT22;32646;50.958;6.258;2022-10-26T15:52:21;19.70;99.50
46898;DHT22;32646;50.958;6.258;2022-10-26T15:54:47;19.50;99.70
46898;DHT22;32646;50.958;6.258;2022-10-26T15:57:14;19.40;99.90
46898;DHT22;32646;50.958;6.258;2022-10-26T15:59:43;19.20;99.90
46898;DHT22;32646;50.958;6.258;2022-10-26T16:02:15;19.10;99.90
46898;DHT22;32646;50.958;6.258;2022-10-26T16:04:42;19.00;99.90
46898;DHT22;32646;50.958;6.258;2022-10-26T16:07:12;18.70;99.90
46898;DHT22;32646;50.958;6.258;2022-10-26T16:09:39;18.60;99.90
46898;DHT22;32646;50.958;6.258;2022-10-26T16:12:08;18.40;99.90
46898;DHT22;32646;50.958;6.258;2022-10-26T16:14:35;18.30;99.90
46898;DHT22;32646;50.958;6.258;2022-10-26T16:17:20;18.20;99.90
46898;DHT22;32646;50.958;6.258;2022-10-26T16:19:46;18.10;99.90
46898;DHT22;32646;50.958;6.258;2022-10-26T16:22:12;17.90;99.90
46898;DHT22;32646;50.958;6.258;2022-10-26T16:24:39;17.70;99.90
46898;DHT22;32646;50.958;6.258;2022-10-26T16:27:06;17.50;99.90
46898;DHT22;32646;50.958;6.258;2022-10-26T16:29:33;17.40;99.90
46898;DHT22;32646;50.958;6.258;2022-10-26T16:31:59;17.20;99.90
46898;DHT22;32646;50.958;6.258;2022-10-26T16:34:26;17.10;99.90
46898;DHT22;32646;50.958;6.258;2022-10-26T16:36:52;17.00;99.90
46898;DHT22;32646;50.958;6.258;2022-10-26T16:39:18;17.00;99.90
46898;DHT22;32646;50.958;6.258;2022-10-26T16:41:47;16.90;99.90
46898;DHT22;32646;50.958;6.258;2022-10-26T16:44:13;17.00;99.90
46898;DHT22;32646;50.958;6.258;2022-10-26T16:46:40;17.00;99.90
46898;DHT22;32646;50.958;6.258;2022-10-26T16:49:06;17.10;99.90
46898;DHT22;32646;50.958;6.258;2022-10-26T16:51:33;17.10;99.90
46898;DHT22;32646;50.958;6.258;2022-10-26T16:53:59;17.10;99.90
46898;DHT22;32646;50.958;6.258;2022-10-26T16:56:27;17.10;99.90
46898;DHT22;32646;50.958;6.258;2022-10-26T16:58:54;17.10;99.90
46898;DHT22;32646;50.958;6.258;2022-10-26T17:01:20;17.00;99.90
46898;DHT22;32646;50.958;6.258;2022-10-26T17:03:47;17.00;99.90
46898;DHT22;32646;50.958;6.258;2022-10-26T17:06:14;16.90;99.90
46898;DHT22;32646;50.958;6.258;2022-10-26T17:08:41;16.80;99.90
46898;DHT22;32646;50.958;6.258;2022-10-26T17:11:09;16.70;99.90
46898;DHT22;32646;50.958;6.258;2022-10-26T17:13:35;16.80;99.90
46898;DHT22;32646;50.958;6.258;2022-10-26T17:16:06;16.90;99.90
46898;DHT22;32646;50.958;6.258;2022-10-26T17:18:33;16.90;99.90
46898;DHT22;32646;50.958;6.258;2022-10-26T17:20:59;17.00;99.90
46898;DHT22;32646;50.958;6.258;2022-10-26T17:23:26;17.10;99.90
46898;DHT22;32646;50.958;6.258;2022-10-26T17:25:53;17.10;99.90
46898;DHT22;32646;50.958;6.258;2022-10-26T17:28:19;17.10;99.90
46898;DHT22;32646;50.958;6.258;2022-10-26T17:30:45;17.10;99.90
46898;DHT22;32646;50.958;6.258;2022-10-26T17:33:12;17.10;99.90
46898;DHT22;32646;50.958;6.258;2022-10-26T17:35:38;17.00;99.90
46898;DHT22;32646;50.958;6.258;2022-10-26T17:38:05;17.00;99.90
46898;DHT22;32646;50.958;6.258;2022-10-26T17:40:31;16.90;99.90
46898;DHT22;32646;50.958;6.258;2022-10-26T17:42:58;16.80;99.90
46898;DHT22;32646;50.958;6.258;2022-10-26T17:45:25;16.70;99.90
46898;DHT22;32646;50.958;6.258;2022-10-26T17:47:51;16.60;99.90
46898;DHT22;32646;50.958;6.258;2022-10-26T17:50:18;16.60;99.90
46898;DHT22;32646;50.958;6.258;2022-10-26T17:52:45;16.60;99.90
46898;DHT22;32646;50.958;6.258;2022-10-26T17:55:11;16.60;99.90
46898;DHT22;32646;50.958;6.258;2022-10-26T17:57:38;16.60;99.90
46898;DHT22;32646;50.958;6.258;2022-10-26T18:00:05;16.60;99.90
46898;DHT22;32646;50.958;6.258;2022-10-26T18:02:32;16.60;99.90
46898;DHT22;32646;50.958;6.258;2022-10-26T18:04:58;16.60;99.90
46898;DHT22;32646;50.958;6.258;2022-10-26T18:07:28;16.60;99.90
46898;DHT22;32646;50.958;6.258;2022-10-26T18:09:54;16.60;99.90
46898;DHT22;32646;50.958;6.258;2022-10-26T18:12:26;16.50;99.90
46898;DHT22;32646;50.958;6.258;2022-10-26T18:14:53;16.50;99.90
46898;DHT22;32646;50.958;6.258;2022-10-26T18:17:19;16.40;99.90
46898;DHT22;32646;50.958;6.258;2022-10-26T18:19:46;16.40;99.90
46898;DHT22;32646;50.958;6.258;2022-10-26T18:22:13;16.40;99.90
46898;DHT22;32646;50.958;6.258;2022-10-26T18:24:40;16.50;99.90
46898;DHT22;32646;50.958;6.258;2022-10-26T18:27:06;16.50;99.90
46898;DHT22;32646;50.958;6.258;2022-10-26T18:29:33;16.50;99.90
46898;DHT22;32646;50.958;6.258;2022-10-26T18:32:01;16.50;99.90
46898;DHT22;32646;50.958;6.258;2022-10-26T18:34:28;16.50;99.90
46898;DHT22;32646;50.958;6.258;2022-10-26T18:36:54;16.40;99.90
46898;DHT22;32646;50.958;6.258;2022-10-26T18:39:20;16.30;99.90
46898;DHT22;32646;50.958;6.258;2022-10-26T18:41:47;16.30;99.90
46898;DHT22;32646;50.958;6.258;2022-10-26T18:44:13;16.20;99.90
46898;DHT22;32646;50.958;6.258;2022-10-26T18:46:40;16.20;99.90
46898;DHT22;32646;50.958;6.258;2022-10-26T18:49:07;16.20;99.90
46898;DHT22;32646;50.958;6.258;2022-10-26T18:51:37;16.20;99.90
46898;DHT22;32646;50.958;6.258;2022-10-26T18:54:04;16.20;99.90
46898;DHT22;32646;50.958;6.258;2022-10-26T18:56:31;16.20;99.90
46898;DHT22;32646;50.958;6.258;2022-10-26T18:58:57;16.20;99.90
46898;DHT22;32646;50.958;6.258;2022-10-26T19:01:28;16.20;99.90
46898;DHT22;32646;50.958;6.258;2022-10-26T19:04:00;16.20;99.90
46898;DHT22;32646;50.958;6.258;2022-10-26T19:06:31;16.20;99.90
46898;DHT22;32646;50.958;6.258;2022-10-26T19:08:59;16.20;99.90
46898;DHT22;32646;50.958;6.258;2022-10-26T19:11:26;16.20;99.90
46898;DHT22;32646;50.958;6.258;2022-10-26T19:13:53;16.10;99.90
46898;DHT22;32646;50.958;6.258;2022-10-26T19:16:21;16.00;99.90
46898;DHT22;32646;50.958;6.258;2022-10-26T19:19:08;16.00;99.90
46898;DHT22;32646;50.958;6.258;2022-10-26T19:21:34;15.80;99.90
46898;DHT22;32646;50.958;6.258;2022-10-26T19:24:01;15.80;99.90
46898;DHT22;32646;50.958;6.258;2022-10-26T19:26:29;15.70;99.90
46898;DHT22;32646;50.958;6.258;2022-10-26T19:29:01;15.70;99.90
46898;DHT22;32646;50.958;6.258;2022-10-26T19:31:28;15.50;99.90
46898;DHT22;32646;50.958;6.258;2022-10-26T19:33:58;15.30;99.90
46898;DHT22;32646;50.958;6.258;2022-10-26T19:36:25;15.20;99.90
46898;DHT22;32646;50.958;6.258;2022-10-26T19:38:52;14.90;99.90
46898;DHT22;32646;50.958;6.258;2022-10-26T19:41:19;14.70;99.90
46898;DHT22;32646;50.958;6.258;2022-10-26T19:43:46;14.60;99.90
46898;DHT22;32646;50.958;6.258;2022-10-26T19:48:40;14.20;99.90
46898;DHT22;32646;50.958;6.258;2022-10-26T19:51:07;14.10;99.90
46898;DHT22;32646;50.958;6.258;2022-10-26T19:53:34;14.00;99.90
46898;DHT22;32646;50.958;6.258;2022-10-26T19:56:00;13.90;99.90
46898;DHT22;32646;50.958;6.258;2022-10-26T19:58:28;13.90;99.90
46898;DHT22;32646;50.958;6.258;2022-10-26T20:00:55;13.80;99.90
46898;DHT22;32646;50.958;6.258;2022-10-26T20:03:28;13.80;99.90
46898;DHT22;32646;50.958;6.258;2022-10-26T20:05:55;13.70;99.90
46898;DHT22;32646;50.958;6.258;2022-10-26T20:08:21;13.60;99.90
46898;DHT22;32646;50.958;6.258;2022-10-26T20:10:48;13.60;99.90
46898;DHT22;32646;50.958;6.258;2022-10-26T20:13:14;13.60;99.90
46898;DHT22;32646;50.958;6.258;2022-10-26T20:15:41;13.60;99.90
46898;DHT22;32646;50.958;6.258;2022-10-26T20:18:07;13.70;99.90
46898;DHT22;32646;50.958;6.258;2022-10-26T20:20:34;13.60;99.90
46898;DHT22;32646;50.958;6.258;2022-10-26T20:23:00;13.50;99.90
46898;DHT22;32646;50.958;6.258;2022-10-26T20:25:27;13.50;99.90
46898;DHT22;32646;50.958;6.258;2022-10-26T20:27:53;13.40;99.90
46898;DHT22;32646;50.958;6.258;2022-10-26T20:30:20;13.30;99.90
46898;DHT22;32646;50.958;6.258;2022-10-26T20:32:46;13.30;99.90
46898;DHT22;32646;50.958;6.258;2022-10-26T20:35:13;13.20;99.90
46898;DHT22;32646;50.958;6.258;2022-10-26T20:37:40;13.30;99.90
46898;DHT22;32646;50.958;6.258;2022-10-26T20:40:08;13.20;99.90
46898;DHT22;32646;50.958;6.258;2022-10-26T20:42:36;13.10;99.90
46898;DHT22;32646;50.958;6.258;2022-10-26T20:45:08;13.10;99.90
46898;DHT22;32646;50.958;6.258;2022-10-26T20:47:35;13.10;99.90
46898;DHT22;32646;50.958;6.258;2022-10-26T20:50:02;13.00;99.90
46898;DHT22;32646;50.958;6.258;2022-10-26T20:57:58;12.90;99.90
46898;DHT22;32646;50.958;6.258;2022-10-26T21:00:26;13.00;99.90
46898;DHT22;32646;50.958;6.258;2022-10-26T21:02:54;13.20;99.90
46898;DHT22;32646;50.958;6.258;2022-10-26T21:05:20;13.40;99.90
46898;DHT22;32646;50.958;6.258;2022-10-26T21:07:47;13.60;99.90
46898;DHT22;32646;50.958;6.258;2022-10-26T21:10:13;13.70;99.90
46898;DHT22;32646;50.958;6.258;2022-10-26T21:12:40;13.70;99.90
46898;DHT22;32646;50.958;6.258;2022-10-26T21:15:06;13.80;99.90
46898;DHT22;32646;50.958;6.258;2022-10-26T21:17:33;13.70;99.90
46898;DHT22;32646;50.958;6.258;2022-10-26T21:19:59;13.60;99.90
46898;DHT22;32646;50.958;6.258;2022-10-26T21:22:26;13.60;99.90
46898;DHT22;32646;50.958;6.258;2022-10-26T21:24:52;13.60;99.90
46898;DHT22;32646;50.958;6.258;2022-10-26T21:27:19;13.50;99.90
46898;DHT22;32646;50.958;6.258;2022-10-26T21:29:45;13.60;99.90
46898;DHT22;32646;50.958;6.258;2022-10-26T21:32:11;13.70;99.90
46898;DHT22;32646;50.958;6.258;2022-10-26T21:34:38;13.80;99.90
46898;DHT22;32646;50.958;6.258;2022-10-26T21:37:04;13.90;99.90
46898;DHT22;32646;50.958;6.258;2022-10-26T21:39:31;14.00;99.90
46898;DHT22;32646;50.958;6.258;2022-10-26T21:41:57;13.90;99.90
46898;DHT22;32646;50.958;6.258;2022-10-26T21:44:24;14.00;99.90
46898;DHT22;32646;50.958;6.258;2022-10-26T21:47:06;14.00;99.90
46898;DHT22;32646;50.958;6.258;2022-10-26T21:49:32;14.30;99.90
46898;DHT22;32646;50.958;6.258;2022-10-26T21:51:59;14.50;99.90
46898;DHT22;32646;50.958;6.258;2022-10-26T21:54:25;14.70;99.90
46898;DHT22;32646;50.958;6.258;2022-10-26T21:56:51;14.80;99.90
46898;DHT22;32646;50.958;6.258;2022-10-26T21:59:18;14.70;99.90
46898;DHT22;32646;50.958;6.258;2022-10-26T22:01:44;14.60;99.90
46898;DHT22;32646;50.958;6.258;2022-10-26T22:04:11;14.40;99.90
46898;DHT22;32646;50.958;6.258;2022-10-26T22:06:37;14.20;99.90
46898;DHT22;32646;50.958;6.258;2022-10-26T22:09:04;14.00;99.90
46898;DHT22;32646;50.958;6.258;2022-10-26T22:11:30;13.80;99.90
46898;DHT22;32646;50.958;6.258;2022-10-26T22:13:57;13.70;99.90
46898;DHT22;32646;50.958;6.258;2022-10-26T22:16:24;13.60;99.90
46898;DHT22;32646;50.958;6.258;2022-10-26T22:18:52;13.40;99.90
46898;DHT22;32646;50.958;6.258;2022-10-26T22:21:19;13.30;99.90
46898;DHT22;32646;50.958;6.258;2022-10-26T22:23:46;13.30;99.90
46898;DHT22;32646;50.958;6.258;2022-10-26T22:28:39;13.10;99.90
46898;DHT22;32646;50.958;6.258;2022-10-26T22:31:12;13.00;99.90
46898;DHT22;32646;50.958;6.258;2022-10-26T22:33:39;13.00;99.90
46898;DHT22;32646;50.958;6.258;2022-10-26T22:36:06;13.10;99.90
46898;DHT22;32646;50.958;6.258;2022-10-26T22:38:33;13.20;99.90
46898;DHT22;32646;50.958;6.258;2022-10-26T22:40:59;13.10;99.90
46898;DHT22;32646;50.958;6.258;2022-10-26T22:43:26;13.00;99.90
46898;DHT22;32646;50.958;6.258;2022-10-26T22:46:05;13.00;99.90
46898;DHT22;32646;50.958;6.258;2022-10-26T22:48:32;13.00;99.90
46898;DHT22;32646;50.958;6.258;2022-10-26T22:51:15;13.00;99.90
46898;DHT22;32646;50.958;6.258;2022-10-26T22:53:42;12.90;99.90
46898;DHT22;32646;50.958;6.258;2022-10-26T22:56:09;12.80;99.90
46898;DHT22;32646;50.958;6.258;2022-10-26T22:58:36;12.80;99.90
46898;DHT22;32646;50.958;6.258;2022-10-26T23:01:03;12.80;99.90
46898;DHT22;32646;50.958;6.258;2022-10-26T23:03:30;12.70;99.90
46898;DHT22;32646;50.958;6.258;2022-10-26T23:05:57;12.60;99.90
46898;DHT22;32646;50.958;6.258;2022-10-26T23:08:24;12.80;99.90
46898;DHT22;32646;50.958;6.258;2022-10-26T23:10:50;12.90;99.90
46898;DHT22;32646;50.958;6.258;2022-10-26T23:13:17;12.90;99.90
46898;DHT22;32646;50.958;6.258;2022-10-26T23:15:43;12.90;99.90
46898;DHT22;32646;50.958;6.258;2022-10-26T23:18:10;12.90;99.90
46898;DHT22;32646;50.958;6.258;2022-10-26T23:20:36;12.90;99.90
46898;DHT22;32646;50.958;6.258;2022-10-26T23:23:02;12.80;99.90
46898;DHT22;32646;50.958;6.258;2022-10-26T23:25:29;12.70;99.90
46898;DHT22;32646;50.958;6.258;2022-10-26T23:27:55;12.70;99.90
46898;DHT22;32646;50.958;6.258;2022-10-26T23:30:22;12.70;99.90
46898;DHT22;32646;50.958;6.258;2022-10-26T23:32:48;12.70;99.90
46898;DHT22;32646;50.958;6.258;2022-10-26T23:35:15;12.60;99.90
46898;DHT22;32646;50.958;6.258;2022-10-26T23:37:42;12.50;99.90
46898;DHT22;32646;50.958;6.258;2022-10-26T23:40:08;12.40;99.90
46898;DHT22;32646;50.958;6.258;2022-10-26T23:42:35;12.40;99.90
46898;DHT22;32646;50.958;6.258;2022-10-26T23:45:02;12.30;99.90
46898;DHT22;32646;50.958;6.258;2022-10-26T23:47:28;12.20;99.90
46898;DHT22;32646;50.958;6.258;2022-10-26T23:49:54;12.20;99.90
46898;DHT22;32646;50.958;6.258;2022-10-26T23:52:21;12.20;99.90
46898;DHT22;32646;50.958;6.258;2022-10-26T23:54:47;12.20;99.90
46898;DHT22;32646;50.958;6.258;2022-10-26T23:57:15;12.20;99.90
46898;DHT22;32646;50.958;6.258;2022-10-26T23:59:41;12.20;99.90
